Time;durP1;ratioP1;P1;durP2;ratioP2;P2;SDS_P1;SDS_P2;PMS_P1;PMS_P2;Temp;Humidity;BMP_temperature;BMP_pressure;BME280_temperature;BME280_humidity;BME280_pressure;Samples;Min_cycle;Max_cycle;Signal;HPM_P1;HPM_P2
2022/07/25 00:00:32;;;;;;;;;18.60;17.60;;;;;27.13;45.91;99410.84;5151081;27;9449;-77
2022/07/25 00:03:05;;;;;;;;;16.00;15.80;;;;;27.21;45.75;99413.81;5147920;27;8996;-75
2022/07/25 00:05:38;;;;;;;;;19.40;17.80;;;;;27.11;45.97;99418.13;5130494;27;8837;-74
2022/07/25 00:08:06;;;;;;;;;17.00;17.00;;;;;26.95;46.26;99410.31;5130551;27;8896;-73
2022/07/25 00:10:36;;;;;;;;;14.60;13.20;;;;;26.92;46.65;99412.34;5111929;27;8926;-75
2022/07/25 00:13:05;;;;;;;;;16.60;15.20;;;;;27.02;46.41;99402.72;5129522;27;8842;-76
2022/07/25 00:15:33;;;;;;;;;17.80;17.00;;;;;27.09;46.17;99405.78;5130383;27;8857;-76
2022/07/25 00:18:02;;;;;;;;;13.00;12.00;;;;;26.83;46.70;99405.84;5130168;27;8853;-76
2022/07/25 00:20:30;;;;;;;;;14.00;13.00;;;;;26.51;47.78;99400.88;5125990;27;8831;-75
2022/07/25 00:22:59;;;;;;;;;19.40;18.60;;;;;26.53;47.92;99406.13;5150668;27;9624;-75
2022/07/25 00:25:27;;;;;;;;;18.80;18.40;;;;;26.31;48.54;99404.06;5150950;27;8859;-73
2022/07/25 00:27:57;;;;;;;;;17.00;17.00;;;;;26.50;47.82;99398.28;5151477;27;8847;-76
2022/07/25 00:30:26;;;;;;;;;15.40;15.40;;;;;26.59;47.79;99395.00;5149652;27;8998;-75
2022/07/25 00:32:55;;;;;;;;;19.00;17.80;;;;;26.75;47.01;99398.34;5151009;27;8866;-73
2022/07/25 00:35:24;;;;;;;;;17.40;17.40;;;;;26.88;46.54;99403.69;5139400;27;8938;-78
2022/07/25 00:37:52;;;;;;;;;19.00;18.20;;;;;26.97;46.31;99400.34;5129975;27;8873;-74
2022/07/25 00:40:20;;;;;;;;;13.00;12.60;;;;;26.98;46.53;99396.72;5077406;27;8845;-75
2022/07/25 00:42:50;;;;;;;;;18.40;17.00;;;;;27.06;45.96;99404.19;5130353;27;9614;-76
2022/07/25 00:45:19;;;;;;;;;20.60;18.40;;;;;27.13;45.87;99404.63;5129664;27;8990;-74
2022/07/25 00:47:48;;;;;;;;;18.60;16.80;;;;;27.17;45.87;99395.41;5129429;27;9006;-75
2022/07/25 00:50:17;;;;;;;;;20.40;18.00;;;;;27.18;46.10;99400.66;5150430;27;8831;-75
2022/07/25 00:52:45;;;;;;;;;16.80;16.80;;;;;27.21;45.88;99396.91;5150253;27;8871;-75
2022/07/25 00:55:14;;;;;;;;;15.00;14.40;;;;;27.22;45.61;99388.75;5138163;27;8944;-75
2022/07/25 00:57:43;;;;;;;;;19.80;19.00;;;;;27.23;45.92;99392.28;5093685;27;8845;-77
2022/07/25 01:00:14;;;;;;;;;20.00;16.20;;;;;27.22;45.79;99386.09;5129476;27;8883;-74
2022/07/25 01:02:44;;;;;;;;;19.40;18.80;;;;;27.21;45.62;99392.38;5129748;27;8865;-75
2022/07/25 01:05:13;;;;;;;;;16.80;16.80;;;;;27.21;45.83;99387.03;5128643;27;8838;-74
2022/07/25 01:07:42;;;;;;;;;17.25;17.25;;;;;27.18;45.87;99387.28;5094338;27;8849;-77
2022/07/25 01:10:11;;;;;;;;;20.40;18.00;;;;;27.15;46.18;99378.59;5129297;27;8841;-74
2022/07/25 01:12:51;;;;;;;;;22.50;20.75;;;;;27.15;45.80;99382.13;5128865;27;8929;-74
2022/07/25 01:15:20;;;;;;;;;20.00;19.75;;;;;27.15;45.98;99382.13;5128714;27;8871;-75
2022/07/25 01:17:51;;;;;;;;;23.50;21.50;;;;;27.10;45.89;99378.91;5129188;27;8876;-75
2022/07/25 01:20:22;;;;;;;;;20.50;18.75;;;;;27.04;46.10;99380.22;5128452;27;8838;-75
2022/07/25 01:22:52;;;;;;;;;21.00;20.50;;;;;27.04;46.04;99379.38;5110765;27;8845;-75
2022/07/25 01:25:21;;;;;;;;;20.75;19.00;;;;;27.02;46.35;99378.63;5129105;27;8861;-76
2022/07/25 01:27:50;;;;;;;;;18.25;18.25;;;;;26.97;46.33;99376.25;5128826;27;8846;-75
2022/07/25 01:30:24;;;;;;;;;18.75;17.75;;;;;26.93;46.44;99368.56;5110167;27;8854;-75
2022/07/25 01:32:53;;;;;;;;;20.25;19.50;;;;;26.89;46.45;99370.59;5128528;27;8834;-76
2022/07/25 01:35:23;;;;;;;;;19.75;18.75;;;;;26.87;46.68;99363.66;5128437;27;8876;-76
2022/07/25 01:37:52;;;;;;;;;19.00;18.50;;;;;26.83;46.60;99363.03;5128658;27;8861;-74
2022/07/25 01:40:20;;;;;;;;;21.00;18.80;;;;;26.76;46.82;99365.25;5128893;27;8861;-76
2022/07/25 01:42:49;;;;;;;;;18.60;17.80;;;;;26.74;46.60;99366.34;5142784;27;8851;-76
2022/07/25 01:45:17;;;;;;;;;13.00;13.00;;;;;26.69;46.76;99365.81;5128786;27;8869;-75
2022/07/25 01:47:46;;;;;;;;;19.80;19.80;;;;;26.62;47.04;99365.41;5128716;27;8868;-76
2022/07/25 01:50:14;;;;;;;;;19.80;18.60;;;;;26.55;47.34;99364.06;5110044;27;8841;-77
2022/07/25 01:52:44;;;;;;;;;21.40;20.20;;;;;26.50;47.80;99361.72;5128332;27;8884;-75
2022/07/25 01:55:13;;;;;;;;;22.25;21.00;;;;;26.47;47.57;99366.44;5127923;27;8869;-76
2022/07/25 01:57:42;;;;;;;;;22.60;21.20;;;;;26.43;47.60;99365.78;5128425;27;8859;-78
2022/07/25 02:00:18;;;;;;;;;20.75;20.75;;;;;26.34;48.08;99371.78;5128580;27;8845;-75
2022/07/25 02:02:47;;;;;;;;;21.00;20.20;;;;;26.27;48.49;99374.00;5128937;27;8873;-77
2022/07/25 02:05:16;;;;;;;;;19.40;18.40;;;;;26.28;48.41;99369.53;5110397;27;8873;-76
2022/07/25 02:07:46;;;;;;;;;20.60;19.40;;;;;26.23;48.38;99375.16;5096174;27;8831;-75
2022/07/25 02:10:14;;;;;;;;;21.60;21.60;;;;;26.13;48.64;99372.28;5130980;27;8974;-75
2022/07/25 02:12:43;;;;;;;;;18.40;18.20;;;;;26.08;49.00;99370.88;5126976;27;8845;-76
2022/07/25 02:15:11;;;;;;;;;23.00;21.80;;;;;26.03;48.86;99373.84;5110177;27;8841;-76
2022/07/25 02:17:40;;;;;;;;;19.80;19.80;;;;;26.01;49.13;99363.28;5129368;27;8854;-75
2022/07/25 02:20:09;;;;;;;;;18.60;18.40;;;;;25.98;49.05;99363.47;5131462;27;8874;-79
2022/07/25 02:22:38;;;;;;;;;21.20;20.00;;;;;25.99;48.99;99377.69;5129933;27;8839;-75
2022/07/25 02:25:09;;;;;;;;;22.25;21.00;;;;;25.97;49.45;99367.09;5148926;27;8839;-76
2022/07/25 02:27:38;;;;;;;;;19.75;19.75;;;;;25.93;49.45;99360.25;5111460;27;9626;-76
2022/07/25 02:30:07;;;;;;;;;19.80;18.20;;;;;25.90;49.34;99359.56;5132488;27;8821;-75
2022/07/25 02:32:36;;;;;;;;;21.80;20.40;;;;;25.90;49.20;99365.78;5131981;27;8845;-75
2022/07/25 02:35:06;;;;;;;;;21.80;20.20;;;;;25.90;49.34;99360.44;5132568;27;8846;-75
2022/07/25 02:37:41;;;;;;;;;23.00;21.40;;;;;25.88;49.33;99363.19;5098544;27;8872;-76
2022/07/25 02:40:12;;;;;;;;;20.80;20.20;;;;;25.85;49.31;99362.56;5132328;27;8850;-74
2022/07/25 02:42:41;;;;;;;;;18.20;18.20;;;;;25.85;49.58;99367.91;5151648;27;8962;-76
2022/07/25 02:45:10;;;;;;;;;21.40;19.40;;;;;25.84;49.34;99366.16;5153167;27;8848;-77
2022/07/25 02:47:38;;;;;;;;;22.60;21.00;;;;;25.82;49.52;99362.75;5132171;27;8837;-76
2022/07/25 02:50:08;;;;;;;;;20.20;19.00;;;;;25.83;49.44;99359.13;5132677;27;9113;-74
2022/07/25 02:52:42;;;;;;;;;21.20;19.40;;;;;25.81;49.51;99355.69;5101910;27;8843;-76
2022/07/25 02:55:12;;;;;;;;;21.60;20.40;;;;;25.80;49.46;99367.34;5152782;27;8909;-76
2022/07/25 02:57:40;;;;;;;;;21.60;20.60;;;;;25.79;49.49;99362.97;5131969;27;8842;-74
2022/07/25 03:00:10;;;;;;;;;22.25;21.00;;;;;25.74;49.97;99354.41;5131854;27;8957;-75
2022/07/25 03:02:39;;;;;;;;;20.40;20.40;;;;;25.72;50.09;99364.31;5133061;27;8857;-75
2022/07/25 03:05:09;;;;;;;;;20.80;19.60;;;;;25.68;50.37;99353.84;5134006;27;8876;-76
2022/07/25 03:07:38;;;;;;;;;20.00;20.00;;;;;25.66;50.73;99366.44;5079692;27;8841;-77
2022/07/25 03:10:09;;;;;;;;;18.80;18.80;;;;;25.65;50.77;99366.53;5131962;27;8864;-74
2022/07/25 03:12:41;;;;;;;;;14.20;14.20;;;;;25.60;50.89;99358.00;5131332;27;8833;-74
2022/07/25 03:15:11;;;;;;;;;20.75;20.25;;;;;25.59;50.72;99362.44;5132152;27;8875;-74
2022/07/25 03:17:41;;;;;;;;;18.50;17.50;;;;;25.57;50.92;99363.50;5106800;28;8836;-74
2022/07/25 03:20:10;;;;;;;;;31.50;29.00;;;;;25.51;51.24;99359.44;5108762;28;8860;-77
2022/07/25 03:22:39;;;;;;;;;31.50;30.25;;;;;25.49;50.91;99358.69;5106153;28;8865;-75
2022/07/25 03:25:08;;;;;;;;;18.60;17.60;;;;;25.48;51.08;99368.50;5074510;28;8852;-76
2022/07/25 03:27:51;;;;;;;;;21.60;20.40;;;;;25.49;50.97;99366.69;5100613;28;8861;-76
2022/07/25 03:30:20;;;;;;;;;19.40;19.40;;;;;25.44;50.95;99369.69;5052819;28;8954;-75
2022/07/25 03:32:49;;;;;;;;;21.60;21.60;;;;;25.43;51.35;99369.78;5106431;28;9044;-74
2022/07/25 03:35:17;;;;;;;;;19.40;19.40;;;;;25.40;51.17;99373.47;5106381;28;8867;-75
2022/07/25 03:37:46;;;;;;;;;23.00;23.00;;;;;25.38;51.46;99369.19;5068702;28;8873;-76
2022/07/25 03:40:14;;;;;;;;;22.25;21.50;;;;;25.35;51.62;99366.72;5034007;28;8863;-77
2022/07/25 03:42:43;;;;;;;;;24.40;21.20;;;;;25.36;51.84;99371.97;5106828;28;8880;-75
2022/07/25 03:45:14;;;;;;;;;25.00;23.25;;;;;25.43;51.57;99370.63;5107215;28;8882;-74
2022/07/25 03:47:42;;;;;;;;;23.00;23.00;;;;;25.45;51.45;99371.38;5107104;27;8859;-74
2022/07/25 03:50:11;;;;;;;;;20.00;19.80;;;;;25.46;51.26;99367.75;5098315;27;9611;-76
2022/07/25 03:52:40;;;;;;;;;20.40;20.20;;;;;25.51;51.53;99364.78;5131342;27;8881;-76
2022/07/25 03:55:10;;;;;;;;;24.50;21.50;;;;;25.56;51.24;99364.47;5151381;27;8862;-76
2022/07/25 03:57:39;;;;;;;;;25.00;23.50;;;;;25.60;51.44;99371.34;5149871;27;8867;-74
2022/07/25 04:00:11;;;;;;;;;24.60;22.20;;;;;25.65;51.13;99372.75;5151230;27;8831;-75
2022/07/25 04:02:40;;;;;;;;;21.00;19.75;;;;;25.70;51.02;99368.91;5131336;27;8832;-76
2022/07/25 04:05:13;;;;;;;;;21.50;21.25;;;;;25.76;50.87;99363.16;5132296;27;8847;-75
2022/07/25 04:07:41;;;;;;;;;23.40;23.40;;;;;25.80;50.77;99372.69;5076489;27;8834;-75
2022/07/25 04:10:11;;;;;;;;;22.80;22.80;;;;;25.85;50.52;99362.56;5130669;27;8856;-75
2022/07/25 04:12:40;;;;;;;;;21.20;21.20;;;;;25.92;50.19;99366.56;5131036;27;8865;-74
2022/07/25 04:15:09;;;;;;;;;41.50;36.25;;;;;26.02;50.07;99369.47;5148926;27;8835;-76
2022/07/25 04:17:38;;;;;;;;;28.25;26.00;;;;;26.03;49.68;99369.38;5150818;27;9022;-75
2022/07/25 04:20:09;;;;;;;;;22.00;21.00;;;;;26.08;49.49;99365.53;5133479;27;8863;-75
2022/07/25 04:22:38;;;;;;;;;24.75;23.25;;;;;26.16;49.10;99368.53;5114334;27;8911;-76
2022/07/25 04:25:12;;;;;;;;;21.60;20.60;;;;;26.21;48.76;99369.91;5116232;27;8831;-76
2022/07/25 04:27:40;;;;;;;;;19.00;18.00;;;;;26.23;48.87;99368.00;5111456;27;8833;-74
2022/07/25 04:30:10;;;;;;;;;24.50;23.75;;;;;26.24;48.24;99375.06;5111420;27;8833;-75
2022/07/25 04:32:39;;;;;;;;;41.75;35.75;;;;;26.36;48.40;99367.16;5110965;27;8826;-76
2022/07/25 04:35:10;;;;;;;;;21.00;20.00;;;;;26.39;47.58;99367.81;5129673;27;8853;-77
2022/07/25 04:37:39;;;;;;;;;20.80;19.80;;;;;26.42;47.87;99369.41;5076287;27;9621;-75
2022/07/25 04:40:09;;;;;;;;;25.50;24.75;;;;;26.51;47.33;99368.78;5129329;27;8849;-76
2022/07/25 04:42:38;;;;;;;;;27.25;26.00;;;;;26.61;47.13;99369.03;5076649;27;8888;-76
2022/07/25 04:45:08;;;;;;;;;35.50;32.25;;;;;26.71;46.76;99366.56;5129045;27;8871;-77
2022/07/25 04:47:37;;;;;;;;;25.60;25.00;;;;;26.78;46.57;99363.34;5095311;27;8935;-75
2022/07/25 04:50:06;;;;;;;;;23.00;22.25;;;;;26.84;46.26;99362.91;5149491;27;8873;-77
2022/07/25 04:52:36;;;;;;;;;26.25;23.75;;;;;26.82;45.93;99366.66;5148723;27;8877;-76
2022/07/25 04:55:06;;;;;;;;;23.75;23.75;;;;;26.81;46.58;99364.97;5149795;27;8847;-76
2022/07/25 04:57:35;;;;;;;;;21.25;20.25;;;;;26.95;46.33;99370.16;5130018;27;8851;-77
2022/07/25 05:00:05;;;;;;;;;23.00;22.40;;;;;27.08;45.66;99370.16;5148297;27;9734;-74
2022/07/25 05:02:33;;;;;;;;;22.00;20.00;;;;;27.19;45.30;99364.03;5128240;27;8841;-75
2022/07/25 05:05:02;;;;;;;;;22.50;20.75;;;;;27.25;44.82;99354.69;5128655;27;8868;-74
2022/07/25 05:07:30;;;;;;;;;19.75;16.75;;;;;27.33;44.23;99373.75;5128489;27;8886;-77
2022/07/25 05:10:01;;;;;;;;;26.00;22.50;;;;;27.41;44.39;99356.19;5109963;27;8845;-75
2022/07/25 05:12:30;;;;;;;;;22.50;21.50;;;;;27.51;44.13;99363.53;5146590;27;9027;-77
2022/07/25 05:14:58;;;;;;;;;19.60;17.60;;;;;27.48;44.21;99356.56;5149258;27;8835;-77
2022/07/25 05:17:27;;;;;;;;;26.00;25.25;;;;;27.50;44.12;99362.66;5144407;27;8921;-73
2022/07/25 05:19:57;;;;;;;;;23.50;22.50;;;;;27.48;44.66;99353.88;5129678;27;8849;-75
2022/07/25 05:22:25;;;;;;;;;23.00;23.00;;;;;27.42;44.74;99357.88;5124773;27;8846;-73
2022/07/25 05:24:56;;;;;;;;;22.75;22.50;;;;;27.28;45.27;99358.03;5108991;27;8857;-76
2022/07/25 05:27:26;;;;;;;;;19.50;17.75;;;;;27.29;45.29;99353.53;5109271;27;8858;-77
2022/07/25 05:29:54;;;;;;;;;25.25;24.00;;;;;27.39;45.13;99358.09;5131481;27;8851;-78
2022/07/25 05:32:23;;;;;;;;;26.25;24.00;;;;;27.53;45.01;99359.75;5155124;27;8835;-76
2022/07/25 05:34:51;;;;;;;;;24.00;23.75;;;;;27.46;44.98;99363.84;5149641;27;8857;-77
2022/07/25 05:37:20;;;;;;;;;31.25;28.75;;;;;26.83;46.12;99360.34;5154750;27;8859;-76
2022/07/25 05:39:49;;;;;;;;;25.25;25.25;;;;;26.38;48.02;99371.44;5114386;27;8854;-75
2022/07/25 05:42:17;;;;;;;;;27.75;23.75;;;;;26.52;47.25;99375.84;5131817;27;8854;-76
2022/07/25 05:44:47;;;;;;;;;21.50;21.50;;;;;26.14;48.21;99373.97;5109123;27;8842;-75
2022/07/25 05:47:16;;;;;;;;;27.25;26.00;;;;;26.54;47.82;99365.91;5127175;27;8841;-74
2022/07/25 05:49:45;;;;;;;;;25.25;25.25;;;;;26.75;46.98;99366.25;5126464;27;8947;-75
2022/07/25 05:52:13;;;;;;;;;21.00;21.00;;;;;26.80;47.00;99377.47;5125132;27;8851;-76
2022/07/25 05:54:42;;;;;;;;;27.00;26.00;;;;;26.89;45.93;99375.97;5147630;27;8851;-76
2022/07/25 05:57:11;;;;;;;;;24.75;23.50;;;;;27.18;46.17;99370.34;5127884;27;8931;-77
2022/07/25 05:59:39;;;;;;;;;22.50;20.00;;;;;27.10;45.84;99373.56;5074950;27;8881;-74
2022/07/25 06:02:09;;;;;;;;;20.25;20.25;;;;;27.19;45.23;99366.72;5132746;27;8853;-76
2022/07/25 06:04:38;;;;;;;;;18.00;17.25;;;;;27.44;44.85;99364.94;5152344;27;8839;-75
2022/07/25 06:07:07;;;;;;;;;24.00;22.75;;;;;27.54;43.82;99366.84;5126008;27;10042;-77
2022/07/25 06:09:38;;;;;;;;;27.25;24.50;;;;;27.14;44.73;99368.84;5132926;27;8868;-77
2022/07/25 06:12:07;;;;;;;;;24.50;23.50;;;;;26.77;45.42;99369.66;5115344;27;8934;-75
2022/07/25 06:14:35;;;;;;;;;23.50;21.75;;;;;27.09;45.13;99366.53;5141070;27;8917;-76
2022/07/25 06:17:04;;;;;;;;;21.25;20.75;;;;;27.40;44.40;99358.97;5132773;27;8834;-76
2022/07/25 06:19:34;;;;;;;;;21.00;21.00;;;;;26.88;43.91;99365.34;5132350;27;8964;-77
2022/07/25 06:22:02;;;;;;;;;21.50;21.50;;;;;27.04;43.92;99369.50;5130606;27;8895;-77
2022/07/25 06:24:31;;;;;;;;;24.00;22.50;;;;;27.10;45.32;99365.53;5131664;27;8915;-77
2022/07/25 06:27:00;;;;;;;;;14.50;14.50;;;;;26.79;46.10;99356.19;5111800;27;9778;-75
2022/07/25 06:29:29;;;;;;;;;22.00;22.00;;;;;26.30;47.51;99363.09;5124705;27;8867;-75
2022/07/25 06:31:57;;;;;;;;;27.00;26.00;;;;;26.27;47.94;99363.31;5138052;27;8845;-75
2022/07/25 06:34:26;;;;;;;;;27.75;25.75;;;;;26.42;47.57;99356.03;5132151;27;8857;-76
2022/07/25 06:36:57;;;;;;;;;25.00;23.75;;;;;26.29;46.97;99363.19;5143861;27;8992;-75
2022/07/25 06:39:27;;;;;;;;;21.00;20.00;;;;;26.23;47.37;99354.63;5153079;27;8851;-77
2022/07/25 06:41:56;;;;;;;;;24.75;23.75;;;;;26.63;45.69;99354.59;5138996;27;8818;-75
2022/07/25 06:44:27;;;;;;;;;25.50;23.75;;;;;26.88;44.65;99360.88;5134625;27;8855;-75
2022/07/25 06:46:56;;;;;;;;;26.00;26.00;;;;;26.58;45.50;99362.03;5135793;27;8968;-75
2022/07/25 06:49:24;;;;;;;;;25.25;24.50;;;;;26.30;47.43;99362.25;5131739;27;8849;-73
2022/07/25 06:51:53;;;;;;;;;22.25;22.00;;;;;26.17;46.76;99362.22;5131314;27;8825;-77
2022/07/25 06:54:23;;;;;;;;;21.25;21.00;;;;;26.53;45.99;99357.97;5062839;27;8895;-76
2022/07/25 06:56:52;;;;;;;;;22.00;20.50;;;;;27.02;45.43;99355.38;5119814;27;8981;-75
2022/07/25 06:59:20;;;;;;;;;20.50;20.25;;;;;27.16;44.36;99353.53;5151807;27;8846;-74
2022/07/25 07:01:49;;;;;;;;;27.00;23.50;;;;;27.44;43.30;99352.41;5145033;27;8874;-74
2022/07/25 07:04:19;;;;;;;;;29.25;25.50;;;;;27.43;43.47;99350.72;5133489;27;8840;-75
2022/07/25 07:06:48;;;;;;;;;27.75;25.75;;;;;27.71;42.49;99356.69;5106250;27;8833;-76
2022/07/25 07:09:16;;;;;;;;;24.25;24.25;;;;;27.29;43.87;99357.06;5130627;27;8845;-75
2022/07/25 07:11:46;;;;;;;;;28.25;22.00;;;;;27.72;43.36;99361.09;5111965;27;8850;-75
2022/07/25 07:14:15;;;;;;;;;27.75;26.75;;;;;27.58;43.80;99356.72;5130180;27;9653;-74
2022/07/25 07:16:44;;;;;;;;;27.25;26.50;;;;;27.87;43.67;99365.28;5133010;27;9032;-73
2022/07/25 07:19:13;;;;;;;;;27.50;26.00;;;;;28.18;43.15;99352.25;5131442;27;8918;-74
2022/07/25 07:21:42;;;;;;;;;27.50;26.25;;;;;28.00;43.23;99352.69;5132653;27;8853;-74
2022/07/25 07:24:11;;;;;;;;;25.00;25.00;;;;;27.92;42.96;99365.84;5130846;27;8849;-75
2022/07/25 07:26:54;;;;;;;;;24.25;24.25;;;;;27.74;43.96;99361.81;5142114;27;8838;-75
2022/07/25 07:29:22;;;;;;;;;23.50;23.50;;;;;28.18;43.16;99350.41;5130485;27;8857;-76
2022/07/25 07:31:51;;;;;;;;;24.75;22.75;;;;;28.29;42.07;99357.63;5130202;27;8821;-74
2022/07/25 07:34:20;;;;;;;;;25.25;23.00;;;;;28.40;41.51;99359.50;5130582;27;8884;-75
2022/07/25 07:36:48;;;;;;;;;26.00;25.50;;;;;28.82;40.75;99359.81;5060066;27;8882;-75
2022/07/25 07:39:17;;;;;;;;;24.25;23.25;;;;;28.69;39.20;99364.44;5135838;27;8970;-75
2022/07/25 07:41:45;;;;;;;;;22.25;21.00;;;;;28.28;38.69;99371.16;5135901;27;8865;-73
2022/07/25 07:44:15;;;;;;;;;23.25;22.00;;;;;28.54;39.08;99361.13;5111842;27;8873;-73
2022/07/25 07:46:44;;;;;;;;;24.25;24.00;;;;;28.94;38.64;99366.91;5139909;27;8879;-72
2022/07/25 07:49:13;;;;;;;;;21.25;20.75;;;;;29.29;37.85;99365.06;5150170;27;8839;-70
2022/07/25 07:51:41;;;;;;;;;20.75;19.25;;;;;29.61;36.52;99364.25;5095201;27;8958;-71
2022/07/25 07:56:55;;;;;;;;;23.75;23.75;;;;;30.13;35.48;99367.97;5143306;27;8870;-71
2022/07/25 07:59:25;;;;;;;;;19.00;19.00;;;;;30.35;34.83;99367.00;5134530;27;8850;-69
2022/07/25 08:01:54;;;;;;;;;23.25;21.25;;;;;29.31;35.47;99368.47;5129519;27;8884;-71
2022/07/25 08:04:23;;;;;;;;;19.75;18.75;;;;;29.31;34.11;99376.53;5130849;27;8965;-72
2022/07/25 08:06:52;;;;;;;;;16.25;16.00;;;;;29.29;34.53;99368.59;5131002;27;8900;-71
2022/07/25 08:09:20;;;;;;;;;18.50;18.50;;;;;29.62;34.63;99374.00;5144960;27;8877;-69
2022/07/25 08:11:49;;;;;;;;;20.75;20.75;;;;;29.96;33.92;99371.22;5137725;27;8851;-70
2022/07/25 08:14:17;;;;;;;;;17.50;15.75;;;;;29.23;32.77;99362.88;5131196;27;8852;-76
2022/07/25 08:16:47;;;;;;;;;19.50;19.50;;;;;28.84;33.76;99379.31;5084631;27;8896;-77
2022/07/25 08:19:16;;;;;;;;;14.25;14.25;;;;;28.58;34.70;99384.94;5125163;27;8987;-76
2022/07/25 08:21:44;;;;;;;;;19.00;19.00;;;;;28.87;33.68;99371.03;5133471;27;8927;-74
2022/07/25 08:24:14;;;;;;;;;14.75;14.75;;;;;29.06;32.78;99361.53;5129644;27;8841;-77
2022/07/25 08:26:43;;;;;;;;;15.75;15.75;;;;;29.05;33.02;99362.50;5077899;27;8841;-76
2022/07/25 08:29:11;;;;;;;;;19.75;19.75;;;;;29.06;33.48;99362.38;5128602;27;8873;-78
2022/07/25 08:31:56;;;;;;;;;16.25;16.25;;;;;29.03;32.62;99365.28;5127569;27;8847;-76
2022/07/25 08:34:25;;;;;;;;;14.60;13.60;;;;;29.13;30.54;99355.56;5137964;27;8835;-76
2022/07/25 08:36:53;;;;;;;;;14.40;14.40;;;;;29.58;30.52;99361.81;5138423;27;8829;-76
2022/07/25 08:39:22;;;;;;;;;18.60;18.60;;;;;29.58;30.68;99364.50;5129770;27;8868;-74
2022/07/25 08:41:51;;;;;;;;;12.75;12.75;;;;;29.20;32.06;99363.97;5131345;27;8849;-76
2022/07/25 08:44:20;;;;;;;;;18.40;17.20;;;;;28.82;32.75;99362.50;5122628;27;8841;-77
2022/07/25 08:46:50;;;;;;;;;16.50;16.50;;;;;29.24;32.17;99351.13;5128387;27;8962;-79
2022/07/25 08:49:20;;;;;;;;;18.00;18.00;;;;;29.26;32.28;99355.44;5113441;27;8837;-82
2022/07/25 08:51:50;;;;;;;;;16.50;15.25;;;;;29.21;31.37;99357.63;5113905;27;8849;-76
2022/07/25 08:54:19;;;;;;;;;16.80;15.60;;;;;29.37;31.85;99348.31;5099881;27;8909;-77
2022/07/25 08:56:50;;;;;;;;;16.25;16.25;;;;;29.75;31.16;99353.22;5131962;27;8850;-79
2022/07/25 08:59:18;;;;;;;;;16.00;14.50;;;;;30.00;30.95;99360.09;5114181;27;8879;-79
2022/07/25 09:01:47;;;;;;;;;15.20;15.20;;;;;29.83;29.53;99350.75;5149019;27;9576;-76
2022/07/25 09:04:17;;;;;;;;;16.00;14.75;;;;;30.07;29.00;99350.50;5123326;27;8845;-84
2022/07/25 09:06:51;;;;;;;;;14.00;13.80;;;;;29.57;27.73;99349.38;5097486;27;8839;-75
2022/07/25 09:09:30;;;;;;;;;10.80;10.60;;;;;29.32;27.57;99351.34;5084840;27;8891;-75
2022/07/25 09:11:58;;;;;;;;;13.20;12.80;;;;;29.52;27.90;99345.19;5129638;27;8847;-82
2022/07/25 09:14:28;;;;;;;;;14.00;13.20;;;;;29.78;27.35;99341.38;5110979;27;8841;-82
2022/07/25 09:16:57;;;;;;;;;15.00;14.75;;;;;29.47;30.06;99351.94;5057748;27;8939;-80
2022/07/25 09:19:26;;;;;;;;;16.00;15.00;;;;;29.58;29.48;99340.31;5110247;27;8851;-77
2022/07/25 09:22:01;;;;;;;;;13.20;13.00;;;;;29.79;28.15;99338.53;5118341;27;9673;-79
2022/07/25 09:24:31;;;;;;;;;15.20;15.00;;;;;29.76;27.86;99346.03;5127263;27;8845;-78
2022/07/25 09:27:08;;;;;;;;;13.20;13.20;;;;;29.66;28.61;99336.00;5127459;27;8864;-78
2022/07/25 09:29:39;;;;;;;;;12.40;12.40;;;;;29.58;27.90;99335.78;5137647;27;8848;-73
2022/07/25 09:32:15;;;;;;;;;15.50;14.25;;;;;29.90;28.20;99337.63;5113590;27;8839;-81
2022/07/25 09:34:46;;;;;;;;;15.25;15.00;;;;;29.96;28.03;99333.59;5141406;27;8943;-86
2022/07/25 09:37:18;;;;;;;;;14.60;14.00;;;;;29.89;28.28;99330.56;5143202;27;8849;-78
2022/07/25 09:39:49;;;;;;;;;16.00;14.40;;;;;29.90;27.32;99332.25;5116516;27;8861;-78
2022/07/25 09:42:24;;;;;;;;;12.20;11.20;;;;;30.13;25.70;99328.47;5118820;27;9638;-77
2022/07/25 09:45:01;;;;;;;;;14.20;14.20;;;;;30.24;26.58;99322.16;5119274;27;8873;-77
2022/07/25 09:47:34;;;;;;;;;17.00;17.00;;;;;30.12;28.26;99329.47;5146745;27;8994;-78
2022/07/25 09:50:03;;;;;;;;;15.25;14.75;;;;;30.20;28.24;99323.41;5148967;27;9699;-77
2022/07/25 09:52:33;;;;;;;;;15.80;15.80;;;;;30.49;27.04;99320.94;5130776;27;9683;-75
2022/07/25 09:55:03;;;;;;;;;12.80;12.80;;;;;30.88;27.84;99321.09;5127262;27;8834;-75
2022/07/25 09:57:32;;;;;;;;;18.60;16.60;;;;;30.89;27.65;99317.41;5132417;27;8905;-77
2022/07/25 10:00:01;;;;;;;;;15.75;15.75;;;;;30.76;29.04;99321.34;5128324;27;8884;-80
2022/07/25 10:02:49;;;;;;;;;17.00;16.25;;;;;30.78;28.90;99312.13;5152187;27;8832;-78
2022/07/25 10:05:30;;;;;;;;;15.75;14.75;;;;;30.98;28.16;99307.69;5095705;27;8973;-78
2022/07/25 10:08:05;;;;;;;;;20.25;19.25;;;;;30.88;28.29;99306.78;5118609;27;8841;-77
2022/07/25 10:10:38;;;;;;;;;20.50;17.50;;;;;31.04;27.99;99306.28;5133884;27;8859;-79
2022/07/25 10:13:10;;;;;;;;;22.50;22.25;;;;;31.05;28.75;99299.91;5116660;27;8859;-81
2022/07/25 10:15:47;;;;;;;;;23.25;22.50;;;;;31.38;29.29;99300.53;5141944;27;8826;-78
2022/07/25 10:18:18;;;;;;;;;20.00;18.00;;;;;31.76;28.39;99297.03;5129493;27;8826;-79
2022/07/25 10:20:48;;;;;;;;;20.00;20.00;;;;;31.49;27.76;99295.03;5109717;27;8883;-80
2022/07/25 10:23:20;;;;;;;;;22.75;22.50;;;;;31.40;28.01;99294.03;5111379;27;8862;-77
2022/07/25 10:26:03;;;;;;;;;19.00;16.50;;;;;31.08;28.08;99295.09;5128075;27;8845;-77
2022/07/25 10:28:38;;;;;;;;;14.00;13.25;;;;;30.99;25.91;99281.63;5089342;27;8851;-77
2022/07/25 10:31:21;;;;;;;;;13.00;13.00;;;;;30.77;25.87;99299.66;5130933;27;8845;-78
2022/07/25 10:33:56;;;;;;;;;13.75;13.75;;;;;31.18;25.75;99289.72;5128202;27;8853;-78
2022/07/25 10:36:27;;;;;;;;;13.50;13.50;;;;;31.40;25.64;99294.03;5139545;27;8870;-79
2022/07/25 10:39:01;;;;;;;;;15.00;14.50;;;;;31.04;25.35;99288.31;5128329;27;8853;-80
2022/07/25 10:41:30;;;;;;;;;14.00;13.75;;;;;30.94;25.00;99287.41;5140772;27;8845;-80
2022/07/25 10:44:02;;;;;;;;;15.60;13.20;;;;;31.23;24.62;99284.78;5120979;27;8978;-79
2022/07/25 10:46:35;;;;;;;;;13.50;13.50;;;;;31.25;24.97;99281.97;5130548;27;9014;-77
2022/07/25 10:49:06;;;;;;;;;16.75;16.00;;;;;31.24;25.46;99282.94;5133469;27;8968;-77
2022/07/25 10:51:36;;;;;;;;;15.60;15.60;;;;;31.40;24.60;99282.38;5131457;27;8849;-79
2022/07/25 10:54:15;;;;;;;;;18.50;17.75;;;;;31.47;24.47;99279.03;5114126;27;8956;-76
2022/07/25 10:56:55;;;;;;;;;15.25;15.25;;;;;31.42;24.52;99266.94;5124901;27;8831;-76
2022/07/25 10:59:29;;;;;;;;;15.75;15.75;;;;;31.85;24.92;99257.56;5096416;27;8835;-78
2022/07/25 11:01:58;;;;;;;;;15.25;14.75;;;;;31.85;23.95;99266.53;5137847;27;8861;-76
2022/07/25 11:04:27;;;;;;;;;12.60;12.60;;;;;31.78;23.52;99260.00;5152808;27;9620;-77
2022/07/25 11:06:56;;;;;;;;;5.25;5.25;;;;;31.80;24.04;99257.16;5132834;27;8919;-77
2022/07/25 11:09:28;;;;;;;;;14.20;12.40;;;;;32.20;25.00;99254.25;5149159;27;8875;-79
2022/07/25 11:11:58;;;;;;;;;14.50;13.25;;;;;32.49;23.37;99242.50;5133825;27;8843;-77
2022/07/25 11:14:31;;;;;;;;;15.25;13.75;;;;;32.91;24.09;99243.88;5145600;27;8946;-77
2022/07/25 11:17:12;;;;;;;;;13.80;13.80;;;;;33.20;23.05;99241.00;5135168;27;8848;-76
2022/07/25 11:19:42;;;;;;;;;13.00;12.50;;;;;32.09;22.57;99238.25;5131064;27;8976;-79
2022/07/25 11:22:12;;;;;;;;;16.50;16.25;;;;;31.60;23.40;99242.84;5131071;27;8868;-80
2022/07/25 11:24:43;;;;;;;;;12.75;12.75;;;;;31.92;23.75;99242.50;5125491;27;8987;-77
2022/07/25 11:27:14;;;;;;;;;14.75;13.75;;;;;32.38;23.19;99231.88;5130865;27;8999;-78
2022/07/25 11:29:43;;;;;;;;;7.50;7.25;;;;;32.54;22.64;99221.31;5078676;28;8865;-79
2022/07/25 11:32:12;;;;;;;;;15.50;14.75;;;;;32.94;22.86;99224.66;5067128;28;8853;-76
2022/07/25 11:34:43;;;;;;;;;12.25;10.25;;;;;33.16;22.28;99220.72;5068436;28;8983;-77
2022/07/25 11:37:13;;;;;;;;;14.00;14.00;;;;;33.62;22.68;99221.44;5083303;28;8828;-78
2022/07/25 11:39:47;;;;;;;;;15.75;15.00;;;;;34.01;21.21;99214.78;5068199;28;8890;-75